Time;durP1;ratioP1;P1;durP2;ratioP2;P2;SDS_P1;SDS_P2;PMS_P1;PMS_P2;Temp;Humidity;BMP_temperature;BMP_pressure;BME280_temperature;BME280_humidity;BME280_pressure;Samples;Min_cycle;Max_cycle;Signal;HPM_P1;HPM_P2
2022/11/05 09:00:30;;;;;;;;;;;;;;;12.12;68.24;97237.53;4247741;27;10413;-72
2022/11/05 09:02:33;;;;;;;;;;;;;;;12.42;67.72;97234.69;4247852;27;5729;-73
2022/11/05 09:04:35;;;;;;;;;;;;;;;12.68;67.29;97240.13;4245591;27;5780;-72
2022/11/05 09:06:38;;;;;;;;;;;;;;;12.87;67.01;97238.63;4247831;27;6348;-73
2022/11/05 09:08:41;;;;;;;;;;;;;;;13.04;66.65;97242.59;4247429;27;5741;-73
2022/11/05 09:10:44;;;;;;;;;;;;;;;13.17;66.17;97246.31;4250543;27;5778;-73
2022/11/05 09:12:47;;;;;;;;;;;;;;;13.26;66.11;97242.50;4254723;27;5736;-73
2022/11/05 09:14:50;;;;;;;;;;;;;;;13.33;65.98;97253.97;4252179;27;5651;-73
2022/11/05 09:16:54;;;;;;;;;;;;;;;13.39;65.55;97253.19;4247184;27;5737;-73
2022/11/05 09:18:57;;;;;;;;;;;;;;;13.47;65.32;97257.47;4244024;27;6324;-73
2022/11/05 09:20:59;;;;;;;;;;;;;;;13.50;65.34;97255.25;4245733;27;5647;-73
2022/11/05 09:23:02;;;;;;;;;;;;;;;13.56;65.31;97259.75;4248709;27;5798;-73
2022/11/05 09:25:06;;;;;;;;;;;;;;;13.60;64.92;97262.84;4255171;27;5859;-74
2022/11/05 09:27:10;;;;;;;;;;;;;;;13.63;64.91;97259.78;4247315;27;5639;-74
2022/11/05 09:29:13;;;;;;;;;;;;;;;13.66;64.89;97257.53;4255748;27;5749;-73
2022/11/05 09:31:16;;;;;;;;;;;;;;;13.70;64.52;97263.25;4245677;27;5659;-73
2022/11/05 09:33:23;;;;;;;;;;;;;;;13.74;64.76;97261.84;4247023;27;5890;-73
2022/11/05 09:35:26;;;;;;;;;;;;;;;13.76;64.57;97258.97;4239178;27;6419;-73
2022/11/05 09:37:29;;;;;;;;;;;;;;;13.80;64.27;97254.88;4255554;27;5655;-73
2022/11/05 09:39:32;;;;;;;;;;;;;;;13.81;64.22;97261.84;4246680;27;6403;-73
2022/11/05 09:41:38;;;;;;;;;;;;;;;13.84;64.09;97258.81;4234034;27;5656;-74
2022/11/05 09:43:45;;;;;;;;;;;;;;;13.84;64.07;97261.47;4247087;27;5730;-74
2022/11/05 09:45:51;;;;;;;;;;;;;;;13.85;63.92;97258.59;4245530;27;5799;-74
2022/11/05 09:47:59;;;;;;;;;;;;;;;13.88;64.08;97263.50;4255732;27;5647;-74
2022/11/05 09:50:07;;;;;;;;;;;;;;;13.90;63.99;97266.75;4254835;27;6471;-73
2022/11/05 09:52:14;;;;;;;;;;;;;;;13.92;63.70;97267.38;4255779;27;5655;-74
2022/11/05 09:54:17;;;;;;;;;;;;;;;13.95;63.40;97269.66;4238973;27;5680;-73
2022/11/05 09:56:23;;;;;;;;;;;;;;;13.97;63.35;97277.41;4243829;27;5662;-73
2022/11/05 09:58:36;;;;;;;;;;;;;;;13.99;63.44;97275.38;4240248;27;5663;-72
2022/11/05 10:00:40;;;;;;;;;;;;;;;14.01;63.42;97278.63;4240746;27;5813;-73
2022/11/05 10:02:48;;;;;;;;;;;;;;;14.04;63.11;97277.41;4247177;27;5833;-74
2022/11/05 10:04:54;;;;;;;;;;;;;;;14.04;62.81;97278.22;4234833;27;5747;-74
2022/11/05 10:07:00;;;;;;;;;;;;;;;14.07;62.88;97287.66;4248524;27;5641;-74
2022/11/05 10:09:08;;;;;;;;;;;;;;;14.04;62.93;97274.75;4239037;27;5699;-74
2022/11/05 10:11:16;;;;;;;;;;;;;;;14.03;62.49;97283.75;4235477;27;5119;-74
2022/11/05 10:13:25;;;;;;;;;;;;;;;14.03;62.46;97281.09;4239892;27;5805;-74
2022/11/05 10:15:31;;;;;;;;;;;;;;;14.03;62.22;97284.56;4239820;27;5789;-73
2022/11/05 10:17:40;;;;;;;;;;;;;;;14.03;62.45;97275.78;4238965;27;5633;-73
2022/11/05 10:19:47;;;;;;;;;;;;;;;14.04;62.39;97282.72;4242088;27;5743;-73
2022/11/05 10:21:50;;;;;;;;;;;;;;;14.06;62.15;97281.53;4245484;27;5700;-74
2022/11/05 10:24:15;;;;;;;;;;;;;;;14.08;61.86;97278.66;4237031;27;5746;-73
2022/11/05 10:26:20;;;;;;;;;;;;;;;14.10;61.93;97281.94;4238103;27;5658;-73
2022/11/05 10:28:27;;;;;;;;;;;;;;;14.09;61.54;97281.09;4234971;27;5837;-74
2022/11/05 10:30:30;;;;;;;;;;;;;;;14.13;61.71;97282.34;4234653;27;5631;-74
2022/11/05 10:32:37;;;;;;;;;;;;;;;14.19;61.48;97284.19;4236380;27;5703;-74
2022/11/05 10:34:40;;;;;;;;;;;;;;;14.22;61.14;97286.44;4242064;27;6529;-74
2022/11/05 10:36:43;;;;;;;;;;;;;;;14.22;61.20;97282.97;4235571;27;5844;-74
2022/11/05 10:38:46;;;;;;;;;;;;;;;14.22;60.91;97280.28;4241620;27;5716;-74
2022/11/05 10:40:57;;;;;;;;;;;;;;;14.22;61.09;97274.97;4237706;27;5635;-74
2022/11/05 10:43:05;;;;;;;;;;;;;;;14.23;60.72;97276.63;4237396;27;5747;-74
2022/11/05 10:45:21;;;;;;;;;;;;;;;14.24;60.85;97280.91;4236739;27;5761;-65
2022/11/05 10:47:38;;;;;;;;;;;;;;;14.27;60.87;97272.53;4234693;27;5732;-66
2022/11/05 10:49:50;;;;;;;;;;;;;;;14.28;60.76;97266.19;4236143;27;6331;-67
2022/11/05 10:51:56;;;;;;;;;;;;;;;14.30;60.51;97258.81;4236966;27;5734;-67
2022/11/05 10:54:05;;;;;;;;;;;;;;;14.31;60.50;97273.75;4243831;27;5732;-67
2022/11/05 10:56:31;;;;;;;;;;;;;;;14.24;60.14;97273.75;4238282;27;5853;-67
2022/11/05 10:58:36;;;;;;;;;;;;;;;14.19;60.11;97272.75;4232149;27;5703;-67
2022/11/05 11:00:39;;;;;;;;;;;;;;;14.17;60.37;97269.47;4241393;27;5216;-67
2022/11/05 11:02:42;;;;;;;;;;;;;;;14.21;60.20;97268.03;4244591;27;5732;-67
2022/11/05 11:04:51;;;;;;;;;;;;;;;14.23;59.95;97256.16;4239233;27;5647;-67
2022/11/05 11:06:56;;;;;;;;;;;;;;;14.24;59.39;97263.09;4239439;27;5730;-67
2022/11/05 11:09:02;;;;;;;;;;;;;;;14.24;59.62;97267.59;4225430;27;5655;-67
2022/11/05 11:11:10;;;;;;;;;;;;;;;14.25;59.51;97263.94;4240423;27;5743;-67
2022/11/05 11:13:21;;;;;;;;;;;;;;;14.27;59.41;97253.94;4238507;27;5879;-67
2022/11/05 11:15:27;;;;;;;;;;;;;;;14.28;59.17;97260.88;4228284;27;5797;-67
2022/11/05 11:17:32;;;;;;;;;;;;;;;14.28;59.26;97263.53;4239914;27;5781;-67
2022/11/05 11:19:36;;;;;;;;;;;;;;;14.26;59.07;97257.59;4232702;28;5730;-66
2022/11/05 11:21:40;;;;;;;;;;;;;;;14.26;58.99;97260.25;4233044;28;5718;-67
2022/11/05 11:23:52;;;;;;;;;;;;;;;14.27;59.14;97262.72;4228906;27;5788;-66
2022/11/05 11:26:00;;;;;;;;;;;;;;;14.26;58.77;97258.41;4233751;27;5705;-66
2022/11/05 11:28:05;;;;;;;;;;;;;;;14.26;58.80;97270.88;4240610;27;5621;-66
2022/11/05 11:30:19;;;;;;;;;;;;;;;14.27;58.85;97264.56;4237181;27;5155;-67
2022/11/05 11:32:25;;;;;;;;;;;;;;;14.31;58.90;97263.13;4231674;28;6511;-66
2022/11/05 11:34:34;;;;;;;;;;;;;;;14.35;58.78;97263.53;4237895;27;5734;-67
2022/11/05 11:36:43;;;;;;;;;;;;;;;14.35;58.53;97253.69;4233823;27;6585;-66
2022/11/05 11:38:46;;;;;;;;;;;;;;;14.37;58.55;97256.97;4223521;27;5650;-66
2022/11/05 11:40:49;;;;;;;;;;;;;;;14.41;58.36;97257.41;4223051;27;5857;-65
2022/11/05 11:42:55;;;;;;;;;;;;;;;14.42;58.48;97254.53;4232474;27;5633;-65
2022/11/05 11:45:03;;;;;;;;;;;;;;;14.43;58.21;97248.19;4230974;27;7699;-66
2022/11/05 11:47:12;;;;;;;;;;;;;;;14.41;58.03;97247.56;4232806;27;5799;-66
2022/11/05 11:49:32;;;;;;;;;;;;;;;14.41;58.05;97258.22;4227609;27;5688;-66
2022/11/05 11:51:39;;;;;;;;;;;;;;;14.44;58.18;97254.31;4232163;27;5677;-67
2022/11/05 11:53:42;;;;;;;;;;;;;;;14.44;58.23;97249.00;4226782;27;5660;-67
2022/11/05 11:55:59;;;;;;;;;;;;;;;14.45;57.88;97258.63;4231363;28;5663;-67
2022/11/05 11:58:06;;;;;;;;;;;;;;;14.44;57.90;97256.97;4229372;27;6467;-67
2022/11/05 12:00:10;;;;;;;;;;;;;;;14.43;57.79;97256.16;4230186;28;5714;-67
2022/11/05 12:02:46;;;;;;;;;;;;;;;14.43;57.85;97250.84;4233698;27;5753;-67
2022/11/05 12:05:15;;;;;;;;;;;;;;;14.42;57.77;97254.53;4225173;28;5837;-67
2022/11/05 12:07:31;;;;;;;;;;;;;;;14.42;57.80;97254.53;4233389;27;5778;-67
2022/11/05 12:09:51;;;;;;;;;;;;;;;14.41;57.67;97236.94;4230090;27;6441;-67
2022/11/05 12:12:02;;;;;;;;;;;;;;;14.44;57.67;97233.88;4225855;27;5733;-67
2022/11/05 12:14:16;;;;;;;;;;;;;;;14.46;57.45;97233.66;4239844;27;5425;-67
2022/11/05 12:16:29;;;;;;;;;;;;;;;14.45;57.55;97229.38;4229798;27;7707;-67
2022/11/05 12:18:41;;;;;;;;;;;;;;;14.46;57.43;97233.66;4225675;28;6584;-67
2022/11/05 12:21:04;;;;;;;;;;;;;;;14.47;57.37;97235.31;4233786;27;6469;-66
2022/11/05 12:23:32;;;;;;;;;;;;;;;14.44;57.44;97241.00;4227953;27;5868;-67
2022/11/05 12:25:42;;;;;;;;;;;;;;;14.46;57.53;97242.47;4234635;27;6465;-67
2022/11/05 12:28:01;;;;;;;;;;;;;;;14.47;57.31;97245.94;4232539;27;5742;-67
2022/11/05 12:30:08;;;;;;;;;;;;;;;14.51;57.30;97249.84;4226624;27;5741;-67
2022/11/05 12:32:46;;;;;;;;;;;;;;;14.52;57.20;97244.31;4236691;27;5704;-67
2022/11/05 12:34:58;;;;;;;;;;;;;;;14.54;57.07;97241.44;4222833;28;5683;-66
2022/11/05 12:37:12;;;;;;;;;;;;;;;14.53;57.01;97237.97;4228343;27;5651;-67
2022/11/05 12:39:35;;;;;;;;;;;;;;;14.55;56.89;97238.56;4229880;27;5746;-66
2022/11/05 12:41:46;;;;;;;;;;;;;;;14.57;57.23;97236.50;4226113;27;5708;-67
2022/11/05 12:44:05;;;;;;;;;;;;;;;14.59;56.79;97238.16;4227284;27;5791;-67
2022/11/05 12:46:20;;;;;;;;;;;;;;;14.61;57.04;97236.09;4232018;27;5742;-67
2022/11/05 12:48:53;;;;;;;;;;;;;;;14.60;56.67;97243.25;4226994;28;5757;-67
2022/11/05 12:51:06;;;;;;;;;;;;;;;14.62;56.91;97240.41;4236840;27;5643;-67
2022/11/05 12:53:23;;;;;;;;;;;;;;;14.62;56.77;97232.44;4233138;28;5639;-67
2022/11/05 12:55:29;;;;;;;;;;;;;;;14.63;56.71;97229.56;4233695;28;6439;-67
2022/11/05 12:57:38;;;;;;;;;;;;;;;14.65;56.84;97235.50;4233821;28;5654;-67
2022/11/05 12:59:50;;;;;;;;;;;;;;;14.66;56.70;97234.47;4223772;28;5672;-67
2022/11/05 13:02:00;;;;;;;;;;;;;;;14.66;56.85;97238.97;4227859;28;5844;-67
2022/11/05 13:04:11;;;;;;;;;;;;;;;14.66;56.70;97231.81;4226345;27;5806;-67
2022/11/05 13:06:19;;;;;;;;;;;;;;;14.64;56.35;97244.50;4225031;27;5735;-67
2022/11/05 13:08:25;;;;;;;;;;;;;;;14.56;56.27;97237.53;4239127;27;5642;-66
2022/11/05 13:10:32;;;;;;;;;;;;;;;14.51;56.07;97237.34;4224714;27;5739;-67
2022/11/05 13:12:40;;;;;;;;;;;;;;;14.50;55.87;97225.09;4235163;27;5921;-66
2022/11/05 13:14:47;;;;;;;;;;;;;;;14.48;55.75;97237.75;4235812;27;6429;-67
2022/11/05 13:16:53;;;;;;;;;;;;;;;14.49;55.62;97236.72;4223631;27;5092;-67
2022/11/05 13:19:00;;;;;;;;;;;;;;;14.45;55.35;97238.19;4226845;27;5701;-67
2022/11/05 13:21:06;;;;;;;;;;;;;;;14.40;55.19;97226.50;4242319;27;5785;-66
2022/11/05 13:23:17;;;;;;;;;;;;;;;14.39;54.85;97235.50;4229083;28;5753;-66
2022/11/05 13:25:24;;;;;;;;;;;;;;;14.38;55.09;97232.00;4216788;28;5742;-66
2022/11/05 13:27:43;;;;;;;;;;;;;;;14.37;54.37;97225.03;4227194;27;5850;-67
2022/11/05 13:29:50;;;;;;;;;;;;;;;14.30;53.91;97224.25;4230987;27;5741;-66
2022/11/05 13:31:58;;;;;;;;;;;;;;;14.21;53.89;97226.28;4231783;27;5776;-66
2022/11/05 13:34:04;;;;;;;;;;;;;;;14.20;53.92;97231.81;4227154;27;5742;-67
2022/11/05 13:41:08;;;;;;;;;;;;;;;14.16;53.86;97233.28;4245669;27;5875;-67
2022/11/05 13:43:43;;;;;;;;;;;;;;;14.16;53.50;97227.94;4234358;27;5684;-67
2022/11/05 13:46:22;;;;;;;;;;;;;;;14.14;53.30;97230.78;4188085;28;5651;-67
2022/11/05 13:48:44;;;;;;;;;;;;;;;14.16;53.43;97235.94;4227696;27;5718;-67
2022/11/05 13:51:18;;;;;;;;;;;;;;;14.15;53.20;97237.75;4246635;27;5625;-63
2022/11/05 13:53:45;;;;;;;;;;;;;;;14.13;53.04;97226.50;4243335;27;5712;-63
2022/11/05 13:55:59;;;;;;;;;;;;;;;14.13;52.75;97225.69;4215311;27;5678;-63
2022/11/05 13:58:49;;;;;;;;;;;;;;;14.14;52.55;97235.28;4234200;27;5650;-63
2022/11/05 14:01:05;;;;;;;;;;;;;;;14.19;52.67;97228.34;4229758;27;5862;-63
2022/11/05 14:03:17;;;;;;;;;;;;;;;14.22;52.52;97233.25;4232312;27;5882;-64
2022/11/05 14:05:28;;;;;;;;;;;;;;;14.22;52.36;97233.25;4234059;27;5867;-63
2022/11/05 14:07:34;;;;;;;;;;;;;;;14.21;52.32;97220.16;4224758;27;5730;-63
2022/11/05 14:09:39;;;;;;;;;;;;;;;14.17;51.69;97222.44;4235026;27;5650;-63
2022/11/05 14:11:49;;;;;;;;;;;;;;;14.18;51.76;97215.25;4220431;27;5117;-63
2022/11/05 14:13:56;;;;;;;;;;;;;;;14.22;51.67;97213.81;4244676;27;5625;-63
2022/11/05 14:16:05;;;;;;;;;;;;;;;14.20;51.78;97207.91;4233463;27;5662;-63
2022/11/05 14:18:38;;;;;;;;;;;;;;;14.19;51.89;97215.06;4227676;28;5878;-63
2022/11/05 14:20:57;;;;;;;;;;;;;;;14.19;51.27;97208.91;4231208;27;5647;-63
2022/11/05 14:23:37;;;;;;;;;;;;;;;14.15;51.59;97210.34;4244185;27;5862;-63
2022/11/05 14:25:54;;;;;;;;;;;;;;;14.13;51.55;97202.56;4237289;27;5736;-63
2022/11/05 14:27:58;;;;;;;;;;;;;;;14.12;51.49;97208.09;4238610;27;5701;-63
2022/11/05 14:30:22;;;;;;;;;;;;;;;14.09;51.19;97212.00;4236993;27;5613;-63
2022/11/05 14:32:27;;;;;;;;;;;;;;;14.14;51.31;97214.03;4235329;27;5809;-62
2022/11/05 14:34:48;;;;;;;;;;;;;;;14.09;51.05;97222.63;4226827;27;5672;-63
2022/11/05 14:37:24;;;;;;;;;;;;;;;14.05;50.79;97215.28;4222078;28;5731;-63
2022/11/05 14:39:28;;;;;;;;;;;;;;;14.00;50.63;97207.88;4230869;27;5662;-62
2022/11/05 14:41:31;;;;;;;;;;;;;;;14.04;50.79;97209.09;4230360;28;6085;-62
2022/11/05 14:43:36;;;;;;;;;;;;;;;14.03;50.64;97206.66;4228193;28;6788;-63
2022/11/05 14:45:40;;;;;;;;;;;;;;;14.05;50.71;97205.47;4233875;27;5861;-63
2022/11/05 14:47:53;;;;;;;;;;;;;;;14.09;50.74;97211.16;4231433;27;5805;-63
2022/11/05 14:50:01;;;;;;;;;;;;;;;14.09;50.31;97206.66;4222874;28;5790;-63
2022/11/05 14:52:10;;;;;;;;;;;;;;;14.09;50.63;97211.16;4229631;27;6465;-63
2022/11/05 14:54:22;;;;;;;;;;;;;;;14.10;50.31;97213.63;4233494;27;5726;-63
2022/11/05 14:56:25;;;;;;;;;;;;;;;14.11;50.58;97215.25;4228502;28;5674;-63
2022/11/05 14:58:34;;;;;;;;;;;;;;;14.12;50.43;97221.38;4231028;28;5742;-63
2022/11/05 15:00:49;;;;;;;;;;;;;;;14.10;50.07;97220.78;4229661;27;5787;-63
2022/11/05 15:02:57;;;;;;;;;;;;;;;14.07;49.96;97223.84;4225375;27;5756;-63
2022/11/05 15:05:35;;;;;;;;;;;;;;;14.05;50.12;97231.22;4229305;27;5659;-63
2022/11/05 15:07:38;;;;;;;;;;;;;;;14.05;49.88;97221.41;4201136;28;5715;-64
2022/11/05 15:09:44;;;;;;;;;;;;;;;14.03;50.13;97220.75;4203517;28;5745;-64
2022/11/05 15:12:07;;;;;;;;;;;;;;;13.99;49.99;97223.03;4207564;28;5735;-64
2022/11/05 15:14:21;;;;;;;;;;;;;;;14.00;49.65;97215.88;4208979;28;6745;-64
2022/11/05 15:16:32;;;;;;;;;;;;;;;14.02;49.80;97218.31;4208041;28;5826;-64
2022/11/05 15:18:43;;;;;;;;;;;;;;;14.03;49.70;97212.78;4202921;28;5651;-63
2022/11/05 15:20:48;;;;;;;;;;;;;;;14.03;49.53;97215.44;4208900;28;5720;-63
2022/11/05 15:22:58;;;;;;;;;;;;;;;14.06;49.79;97217.72;4205485;28;5646;-64
2022/11/05 15:25:01;;;;;;;;;;;;;;;14.07;49.42;97218.53;4214353;28;5623;-63
2022/11/05 15:27:11;;;;;;;;;;;;;;;14.07;49.44;97218.53;4213302;28;5734;-63
2022/11/05 15:29:17;;;;;;;;;;;;;;;14.06;49.49;97214.25;4212383;28;5797;-63
2022/11/05 15:31:28;;;;;;;;;;;;;;;14.05;49.47;97216.09;4219283;28;5617;-63
2022/11/05 15:33:32;;;;;;;;;;;;;;;14.04;49.46;97214.44;4217320;28;5746;-63
2022/11/05 15:35:39;;;;;;;;;;;;;;;13.99;49.16;97207.06;4205305;28;5822;-63
2022/11/05 15:37:46;;;;;;;;;;;;;;;13.98;49.27;97205.44;4213579;28;5635;-63
2022/11/05 15:39:57;;;;;;;;;;;;;;;13.96;49.25;97212.81;4212924;28;5880;-64
2022/11/05 15:42:04;;;;;;;;;;;;;;;13.89;49.17;97198.69;4218424;28;5766;-64
2022/11/05 15:44:23;;;;;;;;;;;;;;;13.85;49.29;97205.44;4233504;27;5728;-64
2022/11/05 15:46:28;;;;;;;;;;;;;;;13.80;49.47;97215.84;4231476;27;5765;-64
2022/11/05 15:48:32;;;;;;;;;;;;;;;13.77;49.55;97213.59;4231962;27;5758;-63
2022/11/05 15:50:34;;;;;;;;;;;;;;;13.75;49.37;97215.66;4223790;28;5669;-63
2022/11/05 15:52:41;;;;;;;;;;;;;;;13.77;49.46;97223.41;4241420;27;5777;-64
2022/11/05 15:54:44;;;;;;;;;;;;;;;13.77;49.44;97210.94;4232901;27;5810;-64
2022/11/05 15:56:51;;;;;;;;;;;;;;;13.81;49.30;97219.31;4231011;27;5648;-63
2022/11/05 15:58:58;;;;;;;;;;;;;;;13.82;49.39;97226.31;4230454;28;5654;-63
2022/11/05 16:01:01;;;;;;;;;;;;;;;13.79;49.21;97222.19;4230840;27;5639;-64
2022/11/05 16:03:12;;;;;;;;;;;;;;;13.78;49.17;97223.22;4229455;27;5705;-71
2022/11/05 16:05:15;;;;;;;;;;;;;;;13.74;49.43;97219.34;4222660;27;5883;-70
2022/11/05 16:07:19;;;;;;;;;;;;;;;13.71;49.34;97219.75;4226869;27;5735;-70
2022/11/05 16:09:24;;;;;;;;;;;;;;;13.69;49.52;97211.13;4222909;28;5660;-70
2022/11/05 16:11:27;;;;;;;;;;;;;;;13.72;49.20;97210.75;4223014;28;5758;-71
2022/11/05 16:13:35;;;;;;;;;;;;;;;13.71;49.29;97210.97;4222852;27;5880;-70
2022/11/05 16:15:38;;;;;;;;;;;;;;;13.69;49.29;97211.13;4233210;27;5943;-70
2022/11/05 16:17:53;;;;;;;;;;;;;;;13.66;49.34;97208.88;4231040;27;5870;-70
2022/11/05 16:19:57;;;;;;;;;;;;;;;13.65;49.15;97202.75;4224587;27;5680;-71
2022/11/05 16:22:02;;;;;;;;;;;;;;;13.65;49.34;97199.28;4231315;27;5720;-70
2022/11/05 16:24:05;;;;;;;;;;;;;;;13.66;49.44;97198.25;4222831;27;7743;-71
2022/11/05 16:26:30;;;;;;;;;;;;;;;13.63;49.30;97199.50;4225535;28;5837;-70
2022/11/05 16:28:54;;;;;;;;;;;;;;;13.62;49.40;97200.50;4231097;27;5802;-70
2022/11/05 16:30:59;;;;;;;;;;;;;;;13.63;49.20;97202.16;4227359;27;5862;-70
2022/11/05 16:33:07;;;;;;;;;;;;;;;13.65;49.21;97200.09;4229007;27;5681;-73
2022/11/05 16:35:20;;;;;;;;;;;;;;;13.65;49.18;97204.59;4226264;27;5679;-73
2022/11/05 16:37:24;;;;;;;;;;;;;;;13.66;49.17;97199.06;4226412;28;5668;-73
2022/11/05 16:39:27;;;;;;;;;;;;;;;13.59;48.99;97190.31;4220972;28;5675;-74
2022/11/05 16:41:30;;;;;;;;;;;;;;;13.65;49.12;97199.28;4225394;27;5677;-69
2022/11/05 16:43:33;;;;;;;;;;;;;;;13.66;48.94;97208.88;4228518;28;5762;-69
2022/11/05 16:45:38;;;;;;;;;;;;;;;13.66;48.81;97212.38;4227592;27;5676;-69
2022/11/05 16:47:44;;;;;;;;;;;;;;;13.65;49.17;97220.53;4224828;28;5798;-70
2022/11/05 16:49:48;;;;;;;;;;;;;;;13.67;49.04;97223.81;4225011;27;5874;-73
2022/11/05 16:51:52;;;;;;;;;;;;;;;13.72;48.94;97231.19;4230640;27;5683;-73
2022/11/05 16:53:55;;;;;;;;;;;;;;;13.71;48.89;97224.25;4230039;27;5725;-73
2022/11/05 16:55:58;;;;;;;;;;;;;;;13.71;48.77;97225.06;4223883;27;5785;-73
2022/11/05 16:58:00;;;;;;;;;;;;;;;13.67;48.95;97224.63;4234383;27;6412;-81
2022/11/05 17:00:05;;;;;;;;;;;;;;;13.68;48.78;97231.56;4233201;27;5836;-82
2022/11/05 17:02:10;;;;;;;;;;;;;;;13.67;48.65;97237.09;4227432;27;5774;-83
2022/11/05 17:04:13;;;;;;;;;;;;;;;13.68;48.81;97242.19;4235784;27;5729;-83
2022/11/05 17:06:17;;;;;;;;;;;;;;;13.68;48.83;97247.50;4227626;28;5724;-82
2022/11/05 17:08:21;;;;;;;;;;;;;;;13.69;48.92;97243.00;4229185;27;5845;-82
2022/11/05 17:10:25;;;;;;;;;;;;;;;13.67;48.86;97251.19;4223473;27;5780;-82
2022/11/05 17:12:28;;;;;;;;;;;;;;;13.65;48.70;97250.56;4231513;27;5726;-80
2022/11/05 17:14:31;;;;;;;;;;;;;;;13.62;48.78;97248.34;4231418;27;5862;-83
2022/11/05 17:16:37;;;;;;;;;;;;;;;13.56;48.59;97249.13;4230621;27;5796;-79
2022/11/05 17:18:41;;;;;;;;;;;;;;;13.55;48.66;97236.88;4245624;27;5852;-80
2022/11/05 17:20:45;;;;;;;;;;;;;;;13.52;48.78;97241.75;4236873;27;5888;-78
2022/11/05 17:22:48;;;;;;;;;;;;;;;13.54;48.68;97237.88;4233986;27;5659;-80
2022/11/05 17:24:52;;;;;;;;;;;;;;;13.56;48.56;97248.31;4226905;28;5923;-76
2022/11/05 17:26:55;;;;;;;;;;;;;;;13.58;48.96;97243.59;4230075;27;5773;-75
2022/11/05 17:28:58;;;;;;;;;;;;;;;13.60;48.84;97234.44;4234769;27;5732;-72
2022/11/05 17:31:02;;;;;;;;;;;;;;;13.62;48.85;97240.38;4228967;28;5650;-70
2022/11/05 17:33:05;;;;;;;;;;;;;;;13.63;48.84;97238.53;4231306;27;5797;-71
2022/11/05 17:35:09;;;;;;;;;;;;;;;13.62;48.82;97243.03;4239963;27;5876;-71
2022/11/05 17:37:13;;;;;;;;;;;;;;;13.62;48.65;97237.72;4229561;28;6039;-70
2022/11/05 17:39:16;;;;;;;;;;;;;;;13.67;48.61;97245.06;4235370;28;5679;-70
2022/11/05 17:41:22;;;;;;;;;;;;;;;13.67;48.57;97250.38;4237713;27;5739;-70
2022/11/05 17:43:25;;;;;;;;;;;;;;;13.63;48.58;97247.31;4228912;27;5814;-70
2022/11/05 17:45:27;;;;;;;;;;;;;;;13.63;48.86;97244.66;4240555;27;5646;-76
2022/11/05 17:47:30;;;;;;;;;;;;;;;13.65;48.59;97242.59;4234734;27;5816;-68
2022/11/05 17:49:33;;;;;;;;;;;;;;;13.66;48.90;97241.59;4235448;27;5647;-62
2022/11/05 17:51:36;;;;;;;;;;;;;;;13.66;48.52;97251.41;4234380;27;5745;-63
2022/11/05 17:53:39;;;;;;;;;;;;;;;13.66;48.79;97259.38;4230473;27;6559;-62
2022/11/05 17:55:42;;;;;;;;;;;;;;;13.66;48.81;97262.84;4229851;27;6452;-61
2022/11/05 17:57:48;;;;;;;;;;;;;;;13.66;48.59;97268.16;4225213;27;5854;-66
2022/11/05 17:59:51;;;;;;;;;;;;;;;13.67;48.91;97256.50;4226842;27;5811;-65
2022/11/05 18:01:54;;;;;;;;;;;;;;;13.68;48.77;97258.13;4233930;27;5736;-66
2022/11/05 18:03:57;;;;;;;;;;;;;;;13.68;48.83;97252.00;4232561;27;5613;-66
2022/11/05 18:06:09;;;;;;;;;;;;;;;13.69;48.77;97253.66;4232472;27;6636;-66
2022/11/05 18:08:12;;;;;;;;;;;;;;;13.69;48.69;97253.66;4224919;27;5776;-65
2022/11/05 18:10:15;;;;;;;;;;;;;;;13.68;49.08;97246.69;4230344;28;5840;-65
2022/11/05 18:12:18;;;;;;;;;;;;;;;13.67;48.75;97240.56;4223944;27;5869;-65
2022/11/05 18:14:22;;;;;;;;;;;;;;;13.68;49.03;97241.38;4246071;27;5736;-65
2022/11/05 18:16:26;;;;;;;;;;;;;;;13.67;48.75;97229.94;4232442;27;5671;-65
2022/11/05 18:18:28;;;;;;;;;;;;;;;13.68;48.97;97230.75;4228383;28;5672;-66
2022/11/05 18:20:31;;;;;;;;;;;;;;;13.68;49.10;97225.44;4228768;27;5830;-66
2022/11/05 18:22:34;;;;;;;;;;;;;;;13.69;49.00;97221.75;4238181;27;5643;-66
2022/11/05 18:24:37;;;;;;;;;;;;;;;13.71;48.76;97233.03;4230766;27;5654;-66
2022/11/05 18:26:40;;;;;;;;;;;;;;;13.71;49.07;97229.56;4229552;27;5745;-64
2022/11/05 18:28:43;;;;;;;;;;;;;;;13.69;49.00;97232.38;4231323;28;5805;-65
2022/11/05 18:30:47;;;;;;;;;;;;;;;13.67;48.91;97245.88;4223041;27;5677;-65
2022/11/05 18:32:50;;;;;;;;;;;;;;;13.65;48.92;97239.13;4231755;27;5771;-65
2022/11/05 18:45:56;;;;;;;;;;;;;;;13.73;49.28;97246.94;4221771;27;10231;-65
2022/11/05 18:48:00;;;;;;;;;;;;;;;13.76;49.51;97241.19;4216663;28;5861;-65
2022/11/05 18:50:03;;;;;;;;;;;;;;;13.75;49.55;97247.53;4225482;28;5857;-66
2022/11/05 18:52:06;;;;;;;;;;;;;;;13.76;49.12;97257.16;4220901;28;6483;-67
2022/11/05 18:54:10;;;;;;;;;;;;;;;13.75;49.39;97260.00;4217881;28;5934;-66
2022/11/05 18:56:15;;;;;;;;;;;;;;;13.72;49.10;97255.91;4227749;28;5746;-65
2022/11/05 18:58:17;;;;;;;;;;;;;;;13.71;49.11;97264.91;4218573;28;5877;-69
2022/11/05 19:00:20;;;;;;;;;;;;;;;13.69;49.16;97254.47;4224860;28;5837;-67
2022/11/05 19:02:25;;;;;;;;;;;;;;;13.67;49.22;97250.38;4217834;28;5782;-66
2022/11/05 19:04:29;;;;;;;;;;;;;;;13.65;49.26;97250.56;4223054;28;5763;-68
2022/11/05 19:06:33;;;;;;;;;;;;;;;13.65;49.11;97247.09;4223678;28;5799;-65
2022/11/05 19:08:35;;;;;;;;;;;;;;;13.62;49.11;97237.72;4218862;28;5779;-66
2022/11/05 19:10:39;;;;;;;;;;;;;;;13.60;49.14;97237.09;4219477;28;5867;-66
2022/11/05 19:12:42;;;;;;;;;;;;;;;13.60;48.81;97241.59;4220284;28;5823;-65
2022/11/05 19:14:45;;;;;;;;;;;;;;;13.58;48.99;97243.59;4217260;28;5815;-65
2022/11/05 19:16:48;;;;;;;;;;;;;;;13.56;49.00;97243.00;4224558;28;5899;-64
2022/11/05 19:18:52;;;;;;;;;;;;;;;13.56;48.97;97269.56;4217216;28;5790;-66
2022/11/05 19:20:55;;;;;;;;;;;;;;;13.55;49.09;97266.09;4224442;28;5841;-66
2022/11/05 19:22:58;;;;;;;;;;;;;;;13.54;49.08;97271.59;4216105;28;5681;-65
2022/11/05 19:25:01;;;;;;;;;;;;;;;13.49;48.83;97260.75;4221588;28;5834;-66
2022/11/05 19:27:03;;;;;;;;;;;;;;;13.50;49.15;97260.56;4218921;28;5887;-65
2022/11/05 19:29:06;;;;;;;;;;;;;;;13.47;48.78;97263.59;4221712;28;5762;-65
2022/11/05 19:31:13;;;;;;;;;;;;;;;13.46;48.89;97258.50;4220214;28;6651;-67
2022/11/05 19:33:15;;;;;;;;;;;;;;;13.43;49.23;97254.41;4224287;28;5786;-67
2022/11/05 19:35:20;;;;;;;;;;;;;;;13.43;48.84;97264.22;4221421;28;5687;-71
2022/11/05 19:37:25;;;;;;;;;;;;;;;13.43;48.85;97266.88;4224168;28;5659;-69
2022/11/05 19:39:28;;;;;;;;;;;;;;;13.40;48.77;97268.09;4223518;28;5672;-68
2022/11/05 19:41:31;;;;;;;;;;;;;;;13.39;49.00;97264.63;4220170;28;5856;-66
2022/11/05 19:43:34;;;;;;;;;;;;;;;13.38;48.92;97260.31;4217153;28;5841;-71
2022/11/05 19:45:38;;;;;;;;;;;;;;;13.36;49.16;97257.06;4214799;28;5846;-68
2022/11/05 19:47:46;;;;;;;;;;;;;;;13.36;48.89;97259.72;4208540;28;5827;-67
2022/11/05 19:49:49;;;;;;;;;;;;;;;13.37;48.92;97255.22;4214390;28;5742;-68
2022/11/05 19:51:53;;;;;;;;;;;;;;;13.36;49.01;97259.72;4215111;28;5686;-68
2022/11/05 19:53:58;;;;;;;;;;;;;;;13.35;48.93;97286.44;4205601;28;5846;-68
2022/11/05 19:56:05;;;;;;;;;;;;;;;13.32;48.93;97277.03;4213569;28;5738;-66
2022/11/05 19:58:08;;;;;;;;;;;;;;;13.31;48.97;97285.22;4205711;28;5676;-69
2022/11/05 20:00:12;;;;;;;;;;;;;;;13.29;48.85;97276.63;4207140;28;5767;-68
2022/11/05 20:02:15;;;;;;;;;;;;;;;13.29;49.03;97277.44;4210556;28;5764;-69
2022/11/05 20:04:18;;;;;;;;;;;;;;;13.28;48.86;97272.34;4209365;28;6053;-69
2022/11/05 20:06:24;;;;;;;;;;;;;;;13.28;48.89;97275.81;4214242;28;5675;-69
2022/11/05 20:08:28;;;;;;;;;;;;;;;13.28;48.74;97275.00;4204522;28;5912;-69
2022/11/05 20:10:31;;;;;;;;;;;;;;;13.22;49.07;97273.13;4209694;28;5667;-69
2022/11/05 20:12:35;;;;;;;;;;;;;;;13.22;48.90;97268.63;4210046;28;5747;-68
2022/11/05 20:14:38;;;;;;;;;;;;;;;13.20;49.07;97268.00;4211077;28;5671;-69
2022/11/05 20:16:41;;;;;;;;;;;;;;;13.20;49.12;97264.53;4215182;28;5655;-69
2022/11/05 20:18:44;;;;;;;;;;;;;;;13.21;48.95;97263.50;4208046;28;5097;-66
2022/11/05 20:20:47;;;;;;;;;;;;;;;13.21;49.21;97261.69;4207746;28;5821;-68
2022/11/05 20:22:52;;;;;;;;;;;;;;;13.20;49.25;97264.53;4209403;28;5678;-69
2022/11/05 20:24:56;;;;;;;;;;;;;;;13.22;49.02;97262.50;4211322;28;5659;-69
2022/11/05 20:26:58;;;;;;;;;;;;;;;13.19;49.20;97263.72;4209429;28;5835;-69
2022/11/05 20:29:02;;;;;;;;;;;;;;;13.17;49.16;97254.28;4213739;28;5802;-68
2022/11/05 20:31:06;;;;;;;;;;;;;;;13.15;48.90;97257.16;4213842;28;5758;-68